Time;durP1;ratioP1;P1;durP2;ratioP2;P2;SDS_P1;SDS_P2;PMS_P1;PMS_P2;Temp;Humidity;BMP_temperature;BMP_pressure;BME280_temperature;BME280_humidity;BME280_pressure;Samples;Min_cycle;Max_cycle;Signal;HPM_P1;HPM_P2
2022/03/25 00:09:06;;;;;;;27.50;12.18;;;8.50;99.90;;;;;;20790510;28;20467;-48
2022/03/25 00:19:08;;;;;;;33.17;11.43;;;8.50;99.90;;;;;;20789826;28;20049;-48
2022/03/25 00:29:09;;;;;;;29.15;11.13;;;8.40;99.90;;;;;;20784772;28;20041;-48
2022/03/25 00:39:10;;;;;;;32.00;10.57;;;8.50;99.90;;;;;;20786454;28;20060;-48
2022/03/25 00:49:11;;;;;;;37.38;13.00;;;8.40;99.90;;;;;;20785632;28;20037;-48
2022/03/25 00:59:13;;;;;;;34.72;12.55;;;8.40;99.90;;;;;;20767357;28;20057;-48
2022/03/25 01:09:14;;;;;;;26.42;11.80;;;8.30;99.90;;;;;;20786500;28;20049;-48
2022/03/25 01:19:16;;;;;;;28.13;12.27;;;8.20;99.90;;;;;;20788147;28;20067;-48
2022/03/25 01:29:18;;;;;;;35.88;13.05;;;8.00;99.90;;;;;;20801455;28;20404;-48
2022/03/25 01:39:19;;;;;;;31.65;12.23;;;8.00;99.90;;;;;;20798046;28;20053;-48
2022/03/25 01:49:22;;;;;;;26.35;11.15;;;7.90;99.90;;;;;;20795269;28;20045;-48
2022/03/25 01:59:24;;;;;;;28.73;11.30;;;7.80;99.90;;;;;;20793875;28;20044;-48
2022/03/25 02:09:26;;;;;;;29.45;11.65;;;7.60;99.90;;;;;;20798119;28;20044;-47
2022/03/25 02:19:32;;;;;;;33.63;11.93;;;7.40;99.90;;;;;;20796884;28;20462;-48
2022/03/25 02:29:33;;;;;;;36.40;11.38;;;7.30;99.90;;;;;;20790078;28;20496;-48
2022/03/25 02:39:37;;;;;;;30.92;10.23;;;7.20;99.90;;;;;;20796836;28;20054;-47
2022/03/25 02:49:38;;;;;;;35.58;12.32;;;7.10;99.90;;;;;;20795315;28;20033;-47
2022/03/25 02:59:39;;;;;;;34.60;12.98;;;6.80;99.90;;;;;;20770391;28;20049;-48
2022/03/25 03:09:40;;;;;;;31.15;11.73;;;6.70;99.90;;;;;;20795266;28;20511;-47
2022/03/25 03:19:41;;;;;;;35.97;12.93;;;6.60;99.90;;;;;;20791030;28;20408;-47
2022/03/25 03:29:43;;;;;;;34.22;13.00;;;6.40;99.90;;;;;;20793267;28;20233;-47
2022/03/25 03:39:44;;;;;;;30.77;12.45;;;6.20;99.90;;;;;;20794234;28;20508;-47
2022/03/25 03:49:45;;;;;;;39.65;13.18;;;6.10;99.90;;;;;;20788857;28;20045;-47
2022/03/25 03:59:50;;;;;;;34.55;11.85;;;6.00;99.90;;;;;;20771960;28;20103;-47
2022/03/25 04:09:51;;;;;;;38.33;12.05;;;5.90;99.90;;;;;;20788227;28;20046;-47
2022/03/25 04:19:53;;;;;;;32.50;12.57;;;5.70;99.90;;;;;;20788425;28;20054;-47
2022/03/25 04:29:55;;;;;;;31.95;11.85;;;5.60;99.90;;;;;;20771627;28;20493;-47
2022/03/25 04:39:56;;;;;;;26.02;10.93;;;5.50;99.90;;;;;;20786340;28;20060;-47
2022/03/25 04:49:57;;;;;;;39.25;13.45;;;5.40;99.90;;;;;;20786524;28;20443;-47
2022/03/25 04:59:58;;;;;;;29.05;11.88;;;5.40;99.90;;;;;;20783622;28;20072;-47
2022/03/25 05:10:01;;;;;;;36.08;12.75;;;5.20;99.90;;;;;;20784670;28;20042;-47
2022/03/25 05:20:06;;;;;;;36.42;11.65;;;5.10;99.90;;;;;;20779475;28;20397;-47
2022/03/25 05:30:08;;;;;;;29.83;10.75;;;5.10;99.90;;;;;;20781349;28;20779;-47
2022/03/25 05:40:10;;;;;;;34.90;12.25;;;5.10;99.90;;;;;;20758382;28;20061;-47
2022/03/25 05:50:11;;;;;;;34.95;14.00;;;5.10;99.90;;;;;;20783651;28;20042;-47
2022/03/25 06:00:14;;;;;;;37.85;13.18;;;5.00;99.90;;;;;;20781953;28;20492;-47
2022/03/25 06:10:15;;;;;;;35.10;12.65;;;5.00;99.90;;;;;;20793656;28;20535;-47
2022/03/25 06:20:27;;;;;;;34.20;13.50;;;5.10;99.90;;;;;;20795452;28;20049;-47
2022/03/25 06:30:34;;;;;;;42.30;14.70;;;5.10;99.90;;;;;;20797404;28;20057;-47
2022/03/25 06:40:36;;;;;;;;;;;5.30;99.90;;;;;;20798120;28;20100;-47
2022/03/25 06:50:37;;;;;;;38.85;13.25;;;5.50;99.90;;;;;;20791867;28;19917;-47
2022/03/25 07:00:39;;;;;;;38.90;14.30;;;5.90;99.90;;;;;;20783502;28;20304;-48
2022/03/25 07:10:40;;;;;;;46.20;15.85;;;6.20;99.90;;;;;;20796025;28;20060;-48
2022/03/25 07:20:41;;;;;;;44.63;15.63;;;6.60;99.90;;;;;;20792112;28;20049;-47
2022/03/25 07:30:42;;;;;;;43.95;14.43;;;7.10;99.90;;;;;;20791495;28;20041;-48
2022/03/25 07:40:44;;;;;;;40.67;14.73;;;7.60;99.90;;;;;;20789049;28;20087;-48
2022/03/25 07:50:46;;;;;;;36.72;14.40;;;8.10;99.90;;;;;;20776529;28;20515;-48
2022/03/25 08:00:50;;;;;;;40.22;13.18;;;8.40;99.90;;;;;;20792380;28;20053;-48
2022/03/25 08:10:55;;;;;;;39.85;13.88;;;8.80;99.90;;;;;;20787761;28;20473;-48
2022/03/25 08:20:57;;;;;;;36.63;14.60;;;9.10;99.90;;;;;;20789730;28;20069;-48
2022/03/25 08:30:58;;;;;;;30.58;12.85;;;9.40;99.90;;;;;;20782406;28;20038;-48
2022/03/25 08:40:59;;;;;;;30.85;12.38;;;9.70;99.90;;;;;;20786687;28;20053;-48
2022/03/25 08:51:00;;;;;;;33.00;13.95;;;10.10;99.90;;;;;;20783321;28;20508;-48
2022/03/25 09:01:02;;;;;;;35.35;13.43;;;10.40;99.90;;;;;;20777039;28;20468;-48
2022/03/25 09:11:04;;;;;;;29.92;12.05;;;10.60;99.90;;;;;;20780885;28;20484;-48
2022/03/25 09:21:05;;;;;;;27.25;10.48;;;11.10;99.90;;;;;;20782916;28;20045;-48
2022/03/25 09:31:06;;;;;;;27.27;11.10;;;11.40;99.90;;;;;;20803452;28;20029;-48
2022/03/25 09:41:07;;;;;;;26.27;10.50;;;11.70;99.90;;;;;;20807479;28;20057;-48
2022/03/25 09:51:08;;;;;;;29.58;11.35;;;11.90;99.90;;;;;;20821919;28;20037;-48
2022/03/25 10:01:09;;;;;;;25.75;10.07;;;12.10;99.90;;;;;;20816137;28;20055;-48
2022/03/25 10:11:23;;;;;;;23.88;9.27;;;12.20;99.90;;;;;;20807242;28;20048;-48
2022/03/25 10:21:25;;;;;;;25.58;8.48;;;12.30;99.90;;;;;;20809150;28;20060;-49
2022/03/25 10:31:27;;;;;;;22.05;8.60;;;12.80;99.90;;;;;;20808739;28;20052;-49
2022/03/25 10:41:41;;;;;;;21.90;8.15;;;12.90;99.90;;;;;;20811721;28;20046;-48
2022/03/25 10:51:44;;;;;;;23.08;7.68;;;13.30;99.90;;;;;;20807314;28;20448;-48
2022/03/25 11:01:45;;;;;;;23.40;9.70;;;14.20;99.90;;;;;;20800244;28;20609;-49
2022/03/25 11:11:48;;;;;;;18.52;7.88;;;14.40;99.90;;;;;;20799177;28;20045;-48
2022/03/25 11:21:50;;;;;;;24.85;7.97;;;15.00;99.90;;;;;;20797949;28;20046;-48
2022/03/25 11:32:14;;;;;;;19.73;7.80;;;14.90;99.90;;;;;;20801923;28;20041;-49
2022/03/25 11:42:42;;;;;;;20.90;8.70;;;15.40;99.10;;;;;;20804124;28;20070;-48
2022/03/25 11:52:43;;;;;;;20.85;7.85;;;15.60;98.40;;;;;;20799778;28;20088;-49
2022/03/25 12:03:02;;;;;;;26.65;7.82;;;16.20;98.70;;;;;;20795123;28;20408;-48
2022/03/25 12:13:04;;;;;;;18.50;7.13;;;16.60;97.60;;;;;;20785399;28;20060;-49
2022/03/25 12:23:08;;;;;;;19.13;7.70;;;16.70;96.80;;;;;;20797672;28;20037;-49
2022/03/25 12:33:09;;;;;;;18.85;7.43;;;17.10;96.90;;;;;;20794258;28;20049;-49
2022/03/25 12:43:11;;;;;;;19.55;8.50;;;16.90;97.00;;;;;;20795325;28;20054;-48
2022/03/25 12:53:13;;;;;;;22.05;8.80;;;16.70;98.20;;;;;;20795356;28;20116;-49
2022/03/25 13:03:21;;;;;;;24.83;9.20;;;16.70;98.40;;;;;;20793655;28;20103;-49
2022/03/25 13:13:22;;;;;;;20.65;8.43;;;17.30;97.00;;;;;;20795137;28;20068;-50
2022/03/25 13:23:25;;;;;;;21.42;8.20;;;17.60;96.60;;;;;;20811024;28;20064;-49
2022/03/25 13:33:27;;;;;;;21.33;8.63;;;18.20;97.50;;;;;;20819252;28;20037;-49
2022/03/25 13:43:36;;;;;;;17.42;7.72;;;18.30;96.50;;;;;;20823501;28;20432;-49
2022/03/25 13:53:39;;;;;;;18.92;7.80;;;18.90;95.80;;;;;;20824636;28;20049;-49
2022/03/25 14:03:40;;;;;;;21.20;9.52;;;18.50;95.30;;;;;;20822112;28;20393;-49
2022/03/25 14:14:01;;;;;;;18.35;7.43;;;18.80;94.00;;;;;;20824568;28;20567;-49
2022/03/25 14:34:22;;;;;;;20.92;8.10;;;17.70;95.60;;;;;;20803713;28;20050;-49
2022/03/25 14:44:23;;;;;;;22.58;8.65;;;17.60;96.30;;;;;;20808607;28;20049;-48
2022/03/25 14:54:24;;;;;;;16.42;7.13;;;17.20;96.50;;;;;;20809540;28;20429;-48
2022/03/25 15:04:26;;;;;;;15.10;6.43;;;16.80;97.40;;;;;;20792335;28;20068;-49
2022/03/25 15:14:28;;;;;;;21.92;7.13;;;16.70;97.30;;;;;;20790449;28;20049;-49
2022/03/25 15:24:29;;;;;;;17.38;7.13;;;16.60;96.60;;;;;;20793852;28;20053;-48
2022/03/25 15:34:30;;;;;;;20.45;7.35;;;16.20;96.80;;;;;;20792442;28;20037;-48
2022/03/25 15:44:32;;;;;;;18.70;6.90;;;16.00;97.30;;;;;;20783896;28;20144;-49
2022/03/25 15:54:33;;;;;;;21.40;6.93;;;15.90;97.10;;;;;;20792246;28;20048;-48
2022/03/25 16:04:34;;;;;;;14.52;6.03;;;15.80;97.60;;;;;;20788951;28;20041;-48
2022/03/25 16:14:36;;;;;;;19.27;6.55;;;15.80;97.60;;;;;;20788720;28;20496;-48
2022/03/25 16:24:37;;;;;;;22.15;7.10;;;15.60;97.50;;;;;;20790519;28;20048;-49
2022/03/25 16:34:38;;;;;;;17.38;6.43;;;15.50;97.80;;;;;;20801769;28;20045;-49
2022/03/25 16:44:39;;;;;;;12.63;6.13;;;15.20;98.60;;;;;;20802710;28;20053;-49
2022/03/25 16:54:44;;;;;;;14.45;5.63;;;15.00;98.80;;;;;;20790097;28;20444;-49
2022/03/25 17:04:45;;;;;;;16.38;6.28;;;14.80;99.50;;;;;;20769151;28;20048;-52
2022/03/25 17:14:46;;;;;;;16.75;7.05;;;14.50;99.80;;;;;;20777081;28;20485;-48
2022/03/25 17:24:49;;;;;;;19.33;6.72;;;14.40;99.90;;;;;;20783329;28;20045;-49
2022/03/25 17:34:53;;;;;;;20.60;7.63;;;14.10;99.90;;;;;;20775048;28;20575;-49
2022/03/25 17:45:15;;;;;;;18.90;7.18;;;13.80;99.90;;;;;;20781997;28;20649;-49
2022/03/25 17:55:20;;;;;;;20.20;7.95;;;13.40;99.90;;;;;;20796820;28;20398;-48
2022/03/25 18:05:21;;;;;;;21.33;7.50;;;13.30;99.90;;;;;;20788121;28;20052;-48
2022/03/25 18:15:22;;;;;;;17.45;7.45;;;13.00;99.90;;;;;;20806571;28;20045;-49
2022/03/25 18:25:23;;;;;;;16.00;6.65;;;12.80;99.90;;;;;;20793420;28;20037;-48
2022/03/25 18:35:25;;;;;;;19.48;7.47;;;12.60;99.90;;;;;;20795512;28;20037;-48
2022/03/25 18:45:27;;;;;;;20.30;7.97;;;12.40;99.90;;;;;;20794704;28;20060;-48
2022/03/25 18:55:28;;;;;;;17.90;7.05;;;12.20;99.90;;;;;;20788167;28;20485;-48
2022/03/25 19:05:29;;;;;;;21.75;8.60;;;12.00;99.90;;;;;;20790875;28;20056;-48
2022/03/25 19:15:31;;;;;;;24.80;10.18;;;11.90;99.90;;;;;;20793164;28;20045;-48
2022/03/25 19:25:32;;;;;;;24.50;9.65;;;11.70;99.90;;;;;;20799211;28;20061;-48
2022/03/25 19:35:34;;;;;;;18.83;7.93;;;11.60;99.90;;;;;;20790344;28;20056;-48
2022/03/25 19:45:35;;;;;;;28.25;9.52;;;11.50;99.90;;;;;;20796970;28;20048;-48
2022/03/25 19:55:41;;;;;;;28.25;9.02;;;11.40;99.90;;;;;;20789789;28;20047;-48
2022/03/25 20:05:42;;;;;;;21.10;8.43;;;11.40;99.90;;;;;;20781774;28;20885;-48
2022/03/25 20:15:43;;;;;;;19.40;8.00;;;11.20;99.90;;;;;;20786372;28;20049;-48
2022/03/25 20:25:44;;;;;;;18.23;8.27;;;11.10;99.90;;;;;;20783885;28;20041;-48
2022/03/25 20:35:46;;;;;;;21.35;8.25;;;10.90;99.90;;;;;;20788543;28;20041;-48
2022/03/25 20:45:49;;;;;;;20.63;8.63;;;10.80;99.90;;;;;;20787672;28;20557;-48
2022/03/25 20:55:50;;;;;;;18.58;9.00;;;10.60;99.90;;;;;;20787593;28;20072;-48
2022/03/25 21:05:51;;;;;;;18.75;8.65;;;10.50;99.90;;;;;;20784921;28;20041;-48
2022/03/25 21:15:53;;;;;;;21.98;7.22;;;10.30;99.90;;;;;;20783152;28;20057;-48
2022/03/25 21:25:54;;;;;;;21.63;8.15;;;10.10;99.90;;;;;;20784909;28;20042;-47
2022/03/25 21:35:56;;;;;;;28.38;7.50;;;9.90;99.90;;;;;;20788521;28;20695;-48
2022/03/25 21:45:58;;;;;;;23.45;7.72;;;9.70;99.90;;;;;;20799211;28;20394;-48
2022/03/25 21:55:59;;;;;;;28.17;7.57;;;9.70;99.90;;;;;;20799998;28;20069;-48
2022/03/25 22:06:00;;;;;;;19.05;6.22;;;9.70;99.90;;;;;;20798209;28;20045;-48
2022/03/25 22:16:02;;;;;;;16.17;6.20;;;9.70;99.90;;;;;;20784133;28;20056;-48
2022/03/25 22:26:03;;;;;;;19.55;6.72;;;9.50;99.90;;;;;;20794418;28;20515;-48
2022/03/25 22:36:04;;;;;;;15.70;6.32;;;9.40;99.90;;;;;;20788130;28;20385;-48
2022/03/25 22:46:05;;;;;;;21.75;7.60;;;9.30;99.90;;;;;;20771410;28;20049;-48
2022/03/25 22:56:07;;;;;;;16.33;6.65;;;9.20;99.90;;;;;;20788276;28;20033;-48
2022/03/25 23:06:08;;;;;;;16.08;6.43;;;9.00;99.90;;;;;;20785198;28;20037;-47
2022/03/25 23:16:09;;;;;;;17.92;5.53;;;8.80;99.90;;;;;;20782835;28;20041;-48
2022/03/25 23:26:10;;;;;;;14.90;6.53;;;8.80;99.90;;;;;;20788717;28;20049;-48
2022/03/25 23:36:11;;;;;;;16.42;6.55;;;8.60;99.90;;;;;;20785269;28;20044;-48
2022/03/25 23:46:13;;;;;;;15.90;6.00;;;8.50;99.90;;;;;;20791248;28;20054;-48
2022/03/25 23:56:14;;;;;;;17.83;5.78;;;8.40;99.90;;;;;;20781121;28;20575;-47
